Map

Track Data

SID SEASON NUMBER BASIN SUBBASIN NAME ISO_TIME NATURE LAT LON WMO_WIND WMO_PRES WMO_AGENCY TRACK_TYPE DIST2LAND LANDFALL IFLAG USA_AGENCY USA_ATCF_ID USA_LAT USA_LON USA_RECORD USA_STATUS USA_WIND USA_PRES USA_SSHS USA_R34_NE USA_R34_SE USA_R34_SW USA_R34_NW USA_R50_NE USA_R50_SE USA_R50_SW USA_R50_NW USA_R64_NE USA_R64_SE USA_R64_SW USA_R64_NW USA_POCI USA_ROCI USA_RMW USA_EYE TOKYO_LAT TOKYO_LON TOKYO_GRADE TOKYO_WIND TOKYO_PRES TOKYO_R50_DIR TOKYO_R50_LONG TOKYO_R50_SHORT TOKYO_R30_DIR TOKYO_R30_LONG TOKYO_R30_SHORT TOKYO_LAND CMA_LAT CMA_LON CMA_CAT CMA_WIND CMA_PRES HKO_LAT HKO_LON HKO_CAT HKO_WIND HKO_PRES NEWDELHI_LAT NEWDELHI_LON NEWDELHI_GRADE NEWDELHI_WIND NEWDELHI_PRES NEWDELHI_CI NEWDELHI_DP NEWDELHI_POCI REUNION_LAT REUNION_LON REUNION_TYPE REUNION_WIND REUNION_PRES REUNION_TNUM REUNION_CI REUNION_RMW REUNION_R34_NE REUNION_R34_SE REUNION_R34_SW REUNION_R34_NW REUNION_R50_NE REUNION_R50_SE REUNION_R50_SW REUNION_R50_NW REUNION_R64_NE REUNION_R64_SE REUNION_R64_SW REUNION_R64_NW BOM_LAT BOM_LON BOM_TYPE BOM_WIND BOM_PRES BOM_TNUM BOM_CI BOM_RMW BOM_R34_NE BOM_R34_SE BOM_R34_SW BOM_R34_NW BOM_R50_NE BOM_R50_SE BOM_R50_SW BOM_R50_NW BOM_R64_NE BOM_R64_SE BOM_R64_SW BOM_R64_NW BOM_ROCI BOM_POCI BOM_EYE BOM_POS_METHOD BOM_PRES_METHOD NADI_LAT NADI_LON NADI_CAT NADI_WIND NADI_PRES WELLINGTON_LAT WELLINGTON_LON WELLINGTON_WIND WELLINGTON_PRES DS824_LAT DS824_LON DS824_STAGE DS824_WIND DS824_PRES TD9636_LAT TD9636_LON TD9636_STAGE TD9636_WIND TD9636_PRES TD9635_LAT TD9635_LON TD9635_WIND TD9635_PRES TD9635_ROCI NEUMANN_LAT NEUMANN_LON NEUMANN_CLASS NEUMANN_WIND NEUMANN_PRES MLC_LAT MLC_LON MLC_CLASS MLC_WIND MLC_PRES USA_GUST BOM_GUST BOM_GUST_PER REUNION_GUST REUNION_GUST_PER USA_SEAHGT USA_SEARAD_NE USA_SEARAD_SE USA_SEARAD_SW USA_SEARAD_NW STORM_SPEED STORM_DIR
1871243N19317 1871 20 NA NA NOT_NAMED 1871-08-30 12:00:00 TS 19.4000 -43.3000 main 1882 1869 _____________O -1 19.4000 -43.3000 TS 35 8 285
1871243N19317 1871 20 NA NA NOT_NAMED 1871-08-30 15:00:00 TS 19.5001 -43.6899 main 1869 1856 _____________P -1 19.5001 -43.6899 TS 35 8 285
1871243N19317 1871 20 NA NA NOT_NAMED 1871-08-30 18:00:00 TS 19.6000 -44.1000 main 1856 1845 _____________O -1 19.6000 -44.1000 TS 35 8 284
1871243N19317 1871 20 NA NA NOT_NAMED 1871-08-30 21:00:00 TS 19.6999 -44.5425 main 1845 1830 _____________P -1 19.6999 -44.5425 TS 35 9 283
1871243N19317 1871 20 NA NA NOT_NAMED 1871-08-31 00:00:00 TS 19.8000 -45.0000 main 1830 1820 _____________O -1 19.8000 -45.0000 TS 35 9 283
1871243N19317 1871 20 NA NA NOT_NAMED 1871-08-31 03:00:00 TS 19.8999 -45.4501 main 1815 1806 _____________P -1 19.8999 -45.4501 TS 35 9 283
1871243N19317 1871 20 NA NA NOT_NAMED 1871-08-31 06:00:00 TS 20.0000 -45.9000 main 1807 1798 _____________O -1 20.0000 -45.9000 TS 35 9 283
1871243N19317 1871 20 NA NA NOT_NAMED 1871-08-31 09:00:00 TS 20.0999 -46.3501 main 1795 1787 _____________P -1 20.0999 -46.3501 TS 37 9 283
1871243N19317 1871 20 NA NA NOT_NAMED 1871-08-31 12:00:00 TS 20.2000 -46.8000 main 1789 1780 _____________O -1 20.2000 -46.8000 TS 40 9 283
1871243N19317 1871 20 NA NA NOT_NAMED 1871-08-31 15:00:00 TS 20.2999 -47.2575 main 1776 1767 _____________P -1 20.2999 -47.2575 TS 40 9 283
1871243N19317 1871 20 NA NA NOT_NAMED 1871-08-31 18:00:00 TS 20.4000 -47.7000 main 1768 1760 _____________O -1 20.4000 -47.7000 TS 40 8 284
1871243N19317 1871 20 NA NA NOT_NAMED 1871-08-31 21:00:00 TS 20.4998 -48.1001 main 1762 1736 _____________P -1 20.4998 -48.1001 TS 40 8 285
1871243N19317 1871 20 NA NA NOT_NAMED 1871-09-01 00:00:00 TS 20.6000 -48.5000 main 1736 1710 _____________O -1 20.6000 -48.5000 TS 40 8 284
1871243N19317 1871 20 NA NA NOT_NAMED 1871-09-01 03:00:00 TS 20.6999 -48.9425 main 1710 1677 _____________P -1 20.6999 -48.9425 TS 40 9 283
1871243N19317 1871 20 NA NA NOT_NAMED 1871-09-01 06:00:00 TS 20.8000 -49.4000 main 1677 1653 _____________O -1 20.8000 -49.4000 TS 40 9 283
1871243N19317 1871 20 NA NA NOT_NAMED 1871-09-01 09:00:00 TS 20.8999 -49.8501 main 1646 1623 _____________P -1 20.8999 -49.8501 TS 42 9 283
1871243N19317 1871 20 NA NA NOT_NAMED 1871-09-01 12:00:00 TS 21.0000 -50.3000 main 1623 1587 _____________O -1 21.0000 -50.3000 TS 45 9 283
1871243N19317 1871 20 NA NA NOT_NAMED 1871-09-01 15:00:00 TS 21.0999 -50.7575 main 1577 1538 _____________P -1 21.0999 -50.7575 TS 45 9 283
1871243N19317 1871 20 NA NA NOT_NAMED 1871-09-01 18:00:00 TS 21.2000 -51.2000 main 1538 1499 _____________O -1 21.2000 -51.2000 TS 45 8 284
1871243N19317 1871 20 NA NA NOT_NAMED 1871-09-01 21:00:00 TS 21.2998 -51.6001 main 1499 1460 _____________P -1 21.2998 -51.6001 TS 45 8 285
1871243N19317 1871 20 NA NA NOT_NAMED 1871-09-02 00:00:00 TS 21.4000 -52.0000 main 1460 1421 _____________O -1 21.4000 -52.0000 TS 45 8 284
1871243N19317 1871 20 NA NA NOT_NAMED 1871-09-02 03:00:00 TS 21.4999 -52.4426 main 1421 1373 _____________P -1 21.4999 -52.4426 TS 45 9 283
1871243N19317 1871 20 NA NA NOT_NAMED 1871-09-02 06:00:00 TS 21.6000 -52.9000 main 1373 1336 _____________O -1 21.6000 -52.9000 TS 45 9 282
1871243N19317 1871 20 NA NA NOT_NAMED 1871-09-02 09:00:00 TS 21.6774 -53.3577 main 1326 1288 _____________P -1 21.6774 -53.3577 TS 47 9 283
1871243N19317 1871 20 NA NA NOT_NAMED 1871-09-02 12:00:00 TS 21.8000 -53.8000 main 1288 1255 _____________O -1 21.8000 -53.8000 TS 50 9 294
1871243N19317 1871 20 NA NA NOT_NAMED 1871-09-02 15:00:00 TS 22.0348 -54.2074 main 1255 1226 _____________P -1 22.0348 -54.2074 TS 50 9 304
1871243N19317 1871 20 NA NA NOT_NAMED 1871-09-02 18:00:00 TS 22.3000 -54.6000 main 1226 1195 _____________O -1 22.3000 -54.6000 TS 50 9 303
1871243N19317 1871 20 NA NA NOT_NAMED 1871-09-02 21:00:00 TS 22.5074 -55.0002 main 1195 1165 _____________P -1 22.5074 -55.0002 TS 50 8 298
1871243N19317 1871 20 NA NA NOT_NAMED 1871-09-03 00:00:00 TS 22.7000 -55.4000 main 1165 1136 _____________O -1 22.7000 -55.4000 TS 50 8 298
1871243N19317 1871 20 NA NA NOT_NAMED 1871-09-03 03:00:00 TS 22.8999 -55.8001 main 1136 1109 _____________P -1 22.8999 -55.8001 TS 50 8 298
1871243N19317 1871 20 NA NA NOT_NAMED 1871-09-03 06:00:00 TS 23.1000 -56.2000 main 1109 1083 _____________O -1 23.1000 -56.2000 TS 50 9 297
1871243N19317 1871 20 NA NA NOT_NAMED 1871-09-03 09:00:00 TS 23.2925 -56.6226 main 1083 1059 _____________P -1 23.2925 -56.6226 TS 50 8 299
1871243N19317 1871 20 NA NA NOT_NAMED 1871-09-03 12:00:00 TS 23.5000 -57.0000 main 1059 1044 _____________O -1 23.5000 -57.0000 TS 50 8 307
1871243N19317 1871 20 NA NA NOT_NAMED 1871-09-03 15:00:00 TS 23.7499 -57.2801 main 1044 1040 _____________P -1 23.7499 -57.2801 TS 50 7 317
1871243N19317 1871 20 NA NA NOT_NAMED 1871-09-03 18:00:00 TS 24.0000 -57.5000 main 1046 1043 _____________O -1 24.0000 -57.5000 TS 50 6 320
1871243N19317 1871 20 NA NA NOT_NAMED 1871-09-03 21:00:00 TS 24.1999 -57.7002 main 1043 1041 _____________P -1 24.1999 -57.7002 TS 50 5 318
1871243N19317 1871 20 NA NA NOT_NAMED 1871-09-04 00:00:00 TS 24.4000 -57.9000 main 1041 1039 _____________O -1 24.4000 -57.9000 TS 50 6 317
1871243N19317 1871 20 NA NA NOT_NAMED 1871-09-04 03:00:00 TS 24.6425 -58.1500 main 1039 1039 _____________P -1 24.6425 -58.1500 TS 50 7 318
1871243N19317 1871 20 NA NA NOT_NAMED 1871-09-04 06:00:00 TS 24.9000 -58.4000 main 1039 1039 _____________O -1 24.9000 -58.4000 TS 50 7 319
1871243N19317 1871 20 NA NA NOT_NAMED 1871-09-04 09:00:00 TS 25.1350 -58.6151 main 1040 1040 _____________P -1 25.1350 -58.6151 TS 50 6 324
1871243N19317 1871 20 NA NA NOT_NAMED 1871-09-04 12:00:00 TS 25.4000 -58.8000 main 1050 1050 _____________O -1 25.4000 -58.8000 TS 50 7 333
1871243N19317 1871 20 NA NA NOT_NAMED 1871-09-04 15:00:00 TS 25.7425 -58.9576 main 1061 1061 _____________P -1 25.7425 -58.9576 TS 50 8 339
1871243N19317 1871 20 NA NA NOT_NAMED 1871-09-04 18:00:00 TS 26.1000 -59.1000 main 1089 1089 _____________O -1 26.1000 -59.1000 TS 50 7 338
1871243N19317 1871 20 NA NA NOT_NAMED 1871-09-04 21:00:00 TS 26.4000 -59.2501 main 1103 1103 _____________P -1 26.4000 -59.2501 TS 50 7 336
1871243N19317 1871 20 NA NA NOT_NAMED 1871-09-05 00:00:00 TS 26.7000 -59.4000 main 1124 1124 _____________O -1 26.7000 -59.4000 TS 50 7 338
1871243N19317 1871 20 NA NA NOT_NAMED 1871-09-05 03:00:00 TS 27.0500 -59.5500 main 1140 1140 _____________P -1 27.0500 -59.5500 TS 50 8 339
1871243N19317 1871 20 NA NA NOT_NAMED 1871-09-05 06:00:00 TS 27.4000 -59.7000 main 1172 1172 _____________O -1 27.4000 -59.7000 TS 50 7 336
1871243N19317 1871 20 NA NA NOT_NAMED 1871-09-05 09:00:00 TS 27.6850 -59.8650 main 1191 1191 _____________P -1 27.6850 -59.8650 TS 50 7 336
1871243N19317 1871 20 NA NA NOT_NAMED 1871-09-05 12:00:00 TS 28.0000 -60.0000 main 1215 1215 _____________O -1 28.0000 -60.0000 TS 50 8 346
1871243N19317 1871 20 NA NA NOT_NAMED 1871-09-05 15:00:00 TS 28.4275 -60.0726 main 1250 1250 _____________P -1 28.4275 -60.0726 TS 50 9 355
1871243N19317 1871 20 NA NA NOT_NAMED 1871-09-05 18:00:00 TS 28.9000 -60.1000 main 1299 1299 _____________O -1 28.9000 -60.1000 TS 50 9 358
1871243N19317 1871 20 NA NA NOT_NAMED 1871-09-05 21:00:00 TS 29.3575 -60.1002 main 1349 1349 _____________P -1 29.3575 -60.1002 TS 50 9 0
1871243N19317 1871 20 NA NA NOT_NAMED 1871-09-06 00:00:00 TS 29.8000 -60.1000 main 1390 1390 _____________O -1 29.8000 -60.1000 TS 50 8 358
1871243N19317 1871 20 NA NA NOT_NAMED 1871-09-06 03:00:00 TS 30.2000 -60.1499 main 1430 1426 _____________P -1 30.2000 -60.1499 TS 50 8 354
1871243N19317 1871 20 NA NA NOT_NAMED 1871-09-06 06:00:00 TS 30.6000 -60.2000 main 1467 1462 _____________O -1 30.6000 -60.2000 TS 50 9 356
1871243N19317 1871 20 NA NA NOT_NAMED 1871-09-06 09:00:00 TS 31.0575 -60.2150 main 1451 1409 _____________P -1 31.0575 -60.2150 TS 52 9 0
1871243N19317 1871 20 NA NA NOT_NAMED 1871-09-06 12:00:00 TS 31.5000 -60.2000 main 1409 1377 _____________O -1 31.5000 -60.2000 TS 55 8 4
1871243N19317 1871 20 NA NA NOT_NAMED 1871-09-06 15:00:00 TS 31.8650 -60.1501 main 1366 1337 _____________P -1 31.8650 -60.1501 TS 55 7 7
1871243N19317 1871 20 NA NA NOT_NAMED 1871-09-06 18:00:00 TS 32.2000 -60.1000 main 1337 1305 _____________O -1 32.2000 -60.1000 TS 55 7 4
1871243N19317 1871 20 NA NA NOT_NAMED 1871-09-06 21:00:00 TS 32.5500 -60.0998 main 1295 1263 _____________P -1 32.5500 -60.0998 TS 57 7 0
1871243N19317 1871 20 NA NA NOT_NAMED 1871-09-07 00:00:00 TS 32.9000 -60.1000 main 1263 1232 _____________O -1 32.9000 -60.1000 TS 60 7 4
1871243N19317 1871 20 NA NA NOT_NAMED 1871-09-07 03:00:00 TS 33.2575 -60.0501 main 1221 1193 _____________P -1 33.2575 -60.0501 TS 60 7 6
1871243N19317 1871 20 NA NA NOT_NAMED 1871-09-07 06:00:00 TS 33.6000 -60.0000 main 1193 1162 _____________O -1 33.6000 -60.0000 TS 60 7 0
1871243N19317 1871 20 NA NA NOT_NAMED 1871-09-07 09:00:00 TS 33.9149 -60.0296 main 1162 1131 _____________P -1 33.9149 -60.0296 TS 60 6 1
1871243N19317 1871 20 NA NA NOT_NAMED 1871-09-07 12:00:00 TS 34.2000 -60.0000 main 1131 1114 _____________O -1 34.2000 -60.0000 TS 60 6 20
1871243N19317 1871 20 NA NA NOT_NAMED 1871-09-07 15:00:00 TS 34.4576 -59.7877 main 1107 1098 _____________P -1 34.4576 -59.7877 TS 60 6 40
1871243N19317 1871 20 NA NA NOT_NAMED 1871-09-07 18:00:00 TS 34.7000 -59.5000 main 1098 1086 _____________O -1 34.7000 -59.5000 TS 60 7 42
1871243N19317 1871 20 NA NA NOT_NAMED 1871-09-07 21:00:00 TS 34.9499 -59.2499 main 1090 1069 _____________P -1 34.9499 -59.2499 TS 62 6 39
1871243N19317 1871 20 NA NA NOT_NAMED 1871-09-08 00:00:00 TS 35.2000 -59.0000 main 1069 1058 _____________O -1 35.2000 -59.0000 HU 65 6 39
1871243N19317 1871 20 NA NA NOT_NAMED 1871-09-08 03:00:00 TS 35.4499 -58.7498 main 1063 1043 _____________P -1 35.4499 -58.7498 HU 65 6 39
1871243N19317 1871 20 NA NA NOT_NAMED 1871-09-08 06:00:00 TS 35.7000 -58.5000 main 1043 1034 _____________O -1 35.7000 -58.5000 HU 65 6 40
1871243N19317 1871 20 NA NA NOT_NAMED 1871-09-08 09:00:00 TS 35.9198 -58.2717 main 1034 1021 _____________P -1 35.9198 -58.2717 HU 65 6 39
1871243N19317 1871 20 NA NA NOT_NAMED 1871-09-08 12:00:00 TS 36.2000 -58.0000 main 1021 997 _____________O -1 36.2000 -58.0000 HU 65 9 36
1871243N19317 1871 20 NA NA NOT_NAMED 1871-09-08 15:00:00 TS 36.6425 -57.6305 main 1000 957 _____________P -1 36.6425 -57.6305 HU 65 11 35
1871243N19317 1871 20 NA NA NOT_NAMED 1871-09-08 18:00:00 TS 37.1000 -57.2000 main 957 935 _____________O -1 37.1000 -57.2000 HU 65 11 42
1871243N19317 1871 20 NA NA NOT_NAMED 1871-09-08 21:00:00 TS 37.4300 -56.7496 main 941 920 _____________P -1 37.4300 -56.7496 HU 65 9 50
1871243N19317 1871 20 NA NA NOT_NAMED 1871-09-09 00:00:00 TS 37.7000 -56.3000 main 924 915 _____________O -1 37.7000 -56.3000 HU 65 8 54
1871243N19317 1871 20 NA NA NOT_NAMED 1871-09-09 03:00:00 TS 37.9197 -55.8988 main 918 905 _____________P -1 37.9197 -55.8988 HU 65 8 52
1871243N19317 1871 20 NA NA NOT_NAMED 1871-09-09 06:00:00 TS 38.2000 -55.5000 main 905 880 _____________O -1 38.2000 -55.5000 HU 65 10 41
1871243N19317 1871 20 NA NA NOT_NAMED 1871-09-09 09:00:00 TS 38.6467 -55.1085 main 884 826 _____________P -1 38.6467 -55.1085 HU 65 12 35
1871243N19317 1871 20 NA NA NOT_NAMED 1871-09-09 12:00:00 TS 39.2000 -54.6000 main 826 756 _____________O -1 39.2000 -54.6000 HU 65 15 41
1871243N19317 1871 20 NA NA NOT_NAMED 1871-09-09 15:00:00 TS 39.7855 -53.8455 main 756 689 _____________P -1 39.7855 -53.8455 HU 65 17 46
1871243N19317 1871 20 NA NA NOT_NAMED 1871-09-09 18:00:00 TS 40.4000 -53.0000 main 689 626 _____________O -1 40.4000 -53.0000 HU 65 17 45
1871243N19317 1871 20 NA NA NOT_NAMED 1871-09-09 21:00:00 TS 40.9994 -52.2409 main 627 571 _____________P -1 40.9994 -52.2409 HU 65 16 43
1871243N19317 1871 20 NA NA NOT_NAMED 1871-09-10 00:00:00 TS 41.6000 -51.5000 main 571 524 _____________O -1 41.6000 -51.5000 HU 65 16 43
1871243N19317 1871 20 NA NA NOT_NAMED 1871-09-10 03:00:00 TS 42.1995 -50.7486 main 527 491 _____________P -1 42.1995 -50.7486 HU 65 16 43
1871243N19317 1871 20 NA NA NOT_NAMED 1871-09-10 06:00:00 TS 42.8000 -50.0000 main 491 468 _____________O -1 42.8000 -50.0000 HU 65 16 42
1871243N19317 1871 20 NA NA NOT_NAMED 1871-09-10 09:00:00 TS 43.4010 -49.2530 main 468 461 _____________P -1 43.4010 -49.2530 HU 62 16 42
1871243N19317 1871 20 NA NA NOT_NAMED 1871-09-10 12:00:00 TS 44.0000 -48.5000 main 466 _____________O -1 44.0000 -48.5000 TS 60 16 42

About IBTrACS Database

This database is a web-friendly format of International Best Track Archive for Climate Stewardship (IBTrACS), a global best track data archive curated by NOAA dating back to 1842.

Updated: 2021-10-08